sensor_id;sensor_type;location;lat;lon;timestamp;P1;durP1;ratioP1;P2;durP2;ratioP2
45318;SDS011;31057;48.498;32.260;2023-05-18T00:00:39;10.18;;;4.15;;
45318;SDS011;31057;48.498;32.260;2023-05-18T00:02:41;13.10;;;4.10;;
45318;SDS011;31057;48.498;32.260;2023-05-18T00:04:43;10.07;;;3.92;;
45318;SDS011;31057;48.498;32.260;2023-05-18T00:06:46;11.90;;;5.65;;
45318;SDS011;31057;48.498;32.260;2023-05-18T00:10:50;8.15;;;5.43;;
45318;SDS011;31057;48.498;32.260;2023-05-18T00:12:52;11.73;;;6.75;;
45318;SDS011;31057;48.498;32.260;2023-05-18T00:14:53;8.98;;;6.13;;
45318;SDS011;31057;48.498;32.260;2023-05-18T00:16:55;11.70;;;5.93;;
45318;SDS011;31057;48.498;32.260;2023-05-18T00:18:58;13.85;;;6.75;;
45318;SDS011;31057;48.498;32.260;2023-05-18T00:21:00;16.67;;;6.63;;
45318;SDS011;31057;48.498;32.260;2023-05-18T00:23:02;8.77;;;5.85;;
45318;SDS011;31057;48.498;32.260;2023-05-18T00:25:04;13.40;;;6.68;;
45318;SDS011;31057;48.498;32.260;2023-05-18T00:29:08;9.40;;;5.55;;
45318;SDS011;31057;48.498;32.260;2023-05-18T00:31:10;11.80;;;5.75;;
45318;SDS011;31057;48.498;32.260;2023-05-18T00:33:12;9.63;;;5.90;;
45318;SDS011;31057;48.498;32.260;2023-05-18T00:35:14;13.93;;;6.32;;
45318;SDS011;31057;48.498;32.260;2023-05-18T00:39:18;11.70;;;6.00;;
45318;SDS011;31057;48.498;32.260;2023-05-18T00:41:20;8.40;;;5.80;;
45318;SDS011;31057;48.498;32.260;2023-05-18T00:43:23;12.65;;;6.40;;
45318;SDS011;31057;48.498;32.260;2023-05-18T00:45:25;10.77;;;6.28;;
45318;SDS011;31057;48.498;32.260;2023-05-18T00:47:27;19.33;;;6.20;;
45318;SDS011;31057;48.498;32.260;2023-05-18T00:49:29;10.70;;;6.28;;
45318;SDS011;31057;48.498;32.260;2023-05-18T00:53:33;8.75;;;6.10;;
45318;SDS011;31057;48.498;32.260;2023-05-18T00:55:36;16.60;;;6.85;;
45318;SDS011;31057;48.498;32.260;2023-05-18T00:59:42;14.77;;;6.88;;
45318;SDS011;31057;48.498;32.260;2023-05-18T01:01:45;12.23;;;7.63;;
45318;SDS011;31057;48.498;32.260;2023-05-18T01:05:49;15.05;;;7.72;;
45318;SDS011;31057;48.498;32.260;2023-05-18T01:07:56;11.75;;;7.50;;
45318;SDS011;31057;48.498;32.260;2023-05-18T01:09:58;14.45;;;7.55;;
45318;SDS011;31057;48.498;32.260;2023-05-18T01:16:55;18.35;;;7.28;;
45318;SDS011;31057;48.498;32.260;2023-05-18T01:26:21;12.07;;;8.10;;
45318;SDS011;31057;48.498;32.260;2023-05-18T01:28:31;14.27;;;8.15;;
45318;SDS011;31057;48.498;32.260;2023-05-18T01:32:40;15.35;;;9.32;;
45318;SDS011;31057;48.498;32.260;2023-05-18T01:34:43;12.32;;;8.57;;
45318;SDS011;31057;48.498;32.260;2023-05-18T01:38:48;17.08;;;7.20;;
45318;SDS011;31057;48.498;32.260;2023-05-18T01:43:00;17.17;;;7.22;;
45318;SDS011;31057;48.498;32.260;2023-05-18T01:45:14;11.50;;;6.45;;
45318;SDS011;31057;48.498;32.260;2023-05-18T01:47:21;12.25;;;7.13;;
45318;SDS011;31057;48.498;32.260;2023-05-18T01:49:35;13.02;;;6.70;;
45318;SDS011;31057;48.498;32.260;2023-05-18T01:51:57;15.40;;;6.75;;
45318;SDS011;31057;48.498;32.260;2023-05-18T01:54:05;12.18;;;5.95;;
45318;SDS011;31057;48.498;32.260;2023-05-18T01:56:08;14.38;;;8.90;;
45318;SDS011;31057;48.498;32.260;2023-05-18T01:58:12;11.00;;;6.85;;
45318;SDS011;31057;48.498;32.260;2023-05-18T02:00:16;16.20;;;7.85;;
45318;SDS011;31057;48.498;32.260;2023-05-18T02:02:19;12.25;;;6.78;;
45318;SDS011;31057;48.498;32.260;2023-05-18T02:04:21;13.05;;;7.85;;
45318;SDS011;31057;48.498;32.260;2023-05-18T02:06:23;14.88;;;7.00;;
45318;SDS011;31057;48.498;32.260;2023-05-18T02:10:27;13.30;;;6.57;;
45318;SDS011;31057;48.498;32.260;2023-05-18T02:12:29;9.43;;;5.93;;
45318;SDS011;31057;48.498;32.260;2023-05-18T02:14:31;14.63;;;6.20;;
45318;SDS011;31057;48.498;32.260;2023-05-18T02:16:36;12.48;;;6.70;;
45318;SDS011;31057;48.498;32.260;2023-05-18T02:18:39;9.75;;;6.90;;
45318;SDS011;31057;48.498;32.260;2023-05-18T02:20:41;12.13;;;6.38;;
45318;SDS011;31057;48.498;32.260;2023-05-18T02:24:46;12.57;;;7.13;;
45318;SDS011;31057;48.498;32.260;2023-05-18T02:26:48;15.02;;;6.95;;
45318;SDS011;31057;48.498;32.260;2023-05-18T02:28:50;11.85;;;7.40;;
45318;SDS011;31057;48.498;32.260;2023-05-18T02:30:52;12.23;;;7.85;;
45318;SDS011;31057;48.498;32.260;2023-05-18T02:32:54;16.10;;;8.45;;
45318;SDS011;31057;48.498;32.260;2023-05-18T02:36:58;19.73;;;7.23;;
45318;SDS011;31057;48.498;32.260;2023-05-18T02:39:04;14.68;;;7.47;;
45318;SDS011;31057;48.498;32.260;2023-05-18T02:41:07;14.23;;;7.40;;
45318;SDS011;31057;48.498;32.260;2023-05-18T02:43:10;10.63;;;6.05;;
45318;SDS011;31057;48.498;32.260;2023-05-18T02:45:13;10.10;;;6.95;;
45318;SDS011;31057;48.498;32.260;2023-05-18T02:47:15;10.60;;;5.95;;
45318;SDS011;31057;48.498;32.260;2023-05-18T02:51:19;13.63;;;5.80;;
45318;SDS011;31057;48.498;32.260;2023-05-18T02:53:22;11.60;;;6.65;;
45318;SDS011;31057;48.498;32.260;2023-05-18T02:55:24;8.50;;;6.20;;
45318;SDS011;31057;48.498;32.260;2023-05-18T02:59:27;12.55;;;6.97;;
45318;SDS011;31057;48.498;32.260;2023-05-18T03:01:29;9.65;;;6.15;;
45318;SDS011;31057;48.498;32.260;2023-05-18T03:03:32;14.10;;;6.70;;
45318;SDS011;31057;48.498;32.260;2023-05-18T03:05:37;12.07;;;6.28;;
45318;SDS011;31057;48.498;32.260;2023-05-18T03:07:39;10.30;;;6.50;;
45318;SDS011;31057;48.498;32.260;2023-05-18T03:09:42;13.38;;;6.45;;
45318;SDS011;31057;48.498;32.260;2023-05-18T03:11:44;11.10;;;7.75;;
45318;SDS011;31057;48.498;32.260;2023-05-18T03:15:48;15.30;;;6.47;;
45318;SDS011;31057;48.498;32.260;2023-05-18T03:17:51;17.27;;;7.07;;
45318;SDS011;31057;48.498;32.260;2023-05-18T03:19:54;12.20;;;7.00;;
45318;SDS011;31057;48.498;32.260;2023-05-18T03:21:57;12.27;;;7.57;;
45318;SDS011;31057;48.498;32.260;2023-05-18T03:23:59;17.75;;;7.65;;
45318;SDS011;31057;48.498;32.260;2023-05-18T03:28:11;14.70;;;8.23;;
45318;SDS011;31057;48.498;32.260;2023-05-18T03:30:13;15.55;;;8.57;;
45318;SDS011;31057;48.498;32.260;2023-05-18T03:32:15;13.40;;;7.78;;
45318;SDS011;31057;48.498;32.260;2023-05-18T03:34:18;14.65;;;8.00;;
45318;SDS011;31057;48.498;32.260;2023-05-18T03:36:20;13.02;;;8.27;;
45318;SDS011;31057;48.498;32.260;2023-05-18T03:38:22;12.90;;;7.72;;
45318;SDS011;31057;48.498;32.260;2023-05-18T03:42:26;16.67;;;8.13;;
45318;SDS011;31057;48.498;32.260;2023-05-18T03:44:28;16.90;;;7.90;;
45318;SDS011;31057;48.498;32.260;2023-05-18T03:46:31;17.27;;;8.32;;
45318;SDS011;31057;48.498;32.260;2023-05-18T03:48:33;16.38;;;8.85;;
45318;SDS011;31057;48.498;32.260;2023-05-18T03:50:34;17.20;;;9.10;;
45318;SDS011;31057;48.498;32.260;2023-05-18T03:54:39;15.32;;;9.55;;
45318;SDS011;31057;48.498;32.260;2023-05-18T03:56:43;13.50;;;8.70;;
45318;SDS011;31057;48.498;32.260;2023-05-18T03:58:44;18.77;;;8.07;;
45318;SDS011;31057;48.498;32.260;2023-05-18T04:00:46;13.43;;;8.15;;
45318;SDS011;31057;48.498;32.260;2023-05-18T04:02:49;11.07;;;7.53;;
45318;SDS011;31057;48.498;32.260;2023-05-18T04:04:52;12.18;;;7.68;;
45318;SDS011;31057;48.498;32.260;2023-05-18T04:06:54;13.48;;;7.00;;
45318;SDS011;31057;48.498;32.260;2023-05-18T04:11:02;13.00;;;7.18;;
45318;SDS011;31057;48.498;32.260;2023-05-18T04:15:07;11.10;;;8.60;;
45318;SDS011;31057;48.498;32.260;2023-05-18T04:17:09;13.23;;;8.10;;
45318;SDS011;31057;48.498;32.260;2023-05-18T04:19:11;10.55;;;7.22;;
45318;SDS011;31057;48.498;32.260;2023-05-18T04:21:14;13.77;;;7.05;;
45318;SDS011;31057;48.498;32.260;2023-05-18T04:23:16;16.60;;;8.45;;
45318;SDS011;31057;48.498;32.260;2023-05-18T04:25:18;13.30;;;7.50;;
45318;SDS011;31057;48.498;32.260;2023-05-18T04:27:20;12.50;;;7.28;;
45318;SDS011;31057;48.498;32.260;2023-05-18T04:29:22;12.60;;;7.28;;
45318;SDS011;31057;48.498;32.260;2023-05-18T04:31:25;11.35;;;6.18;;
45318;SDS011;31057;48.498;32.260;2023-05-18T04:33:28;9.90;;;6.22;;
45318;SDS011;31057;48.498;32.260;2023-05-18T04:35:30;13.68;;;6.95;;
45318;SDS011;31057;48.498;32.260;2023-05-18T04:37:32;9.88;;;6.25;;
45318;SDS011;31057;48.498;32.260;2023-05-18T04:39:34;11.82;;;6.45;;
45318;SDS011;31057;48.498;32.260;2023-05-18T04:41:39;9.40;;;5.93;;
45318;SDS011;31057;48.498;32.260;2023-05-18T04:43:42;12.30;;;5.95;;
45318;SDS011;31057;48.498;32.260;2023-05-18T04:45:44;11.57;;;6.05;;
45318;SDS011;31057;48.498;32.260;2023-05-18T04:47:47;9.20;;;6.18;;
45318;SDS011;31057;48.498;32.260;2023-05-18T04:49:54;17.80;;;7.13;;
45318;SDS011;31057;48.498;32.260;2023-05-18T04:51:56;13.18;;;6.38;;
45318;SDS011;31057;48.498;32.260;2023-05-18T04:54:00;8.23;;;5.13;;
45318;SDS011;31057;48.498;32.260;2023-05-18T04:56:03;15.52;;;6.25;;
45318;SDS011;31057;48.498;32.260;2023-05-18T04:58:06;11.05;;;5.68;;
45318;SDS011;31057;48.498;32.260;2023-05-18T05:00:10;12.95;;;6.15;;
45318;SDS011;31057;48.498;32.260;2023-05-18T05:02:13;17.55;;;7.05;;
45318;SDS011;31057;48.498;32.260;2023-05-18T05:06:17;18.73;;;5.88;;
45318;SDS011;31057;48.498;32.260;2023-05-18T05:08:18;12.98;;;6.18;;
45318;SDS011;31057;48.498;32.260;2023-05-18T05:10:21;12.30;;;6.75;;
45318;SDS011;31057;48.498;32.260;2023-05-18T05:12:23;10.93;;;6.38;;
45318;SDS011;31057;48.498;32.260;2023-05-18T05:14:25;11.27;;;6.03;;
45318;SDS011;31057;48.498;32.260;2023-05-18T05:18:29;9.02;;;5.38;;
45318;SDS011;31057;48.498;32.260;2023-05-18T05:20:32;10.27;;;6.30;;
45318;SDS011;31057;48.498;32.260;2023-05-18T05:22:34;7.43;;;5.05;;
45318;SDS011;31057;48.498;32.260;2023-05-18T05:24:37;13.68;;;5.13;;
45318;SDS011;31057;48.498;32.260;2023-05-18T05:28:41;10.95;;;5.88;;
45318;SDS011;31057;48.498;32.260;2023-05-18T05:32:44;8.40;;;5.65;;
45318;SDS011;31057;48.498;32.260;2023-05-18T05:36:50;8.45;;;6.38;;
45318;SDS011;31057;48.498;32.260;2023-05-18T05:38:52;9.38;;;6.40;;
45318;SDS011;31057;48.498;32.260;2023-05-18T05:42:56;9.27;;;7.10;;
45318;SDS011;31057;48.498;32.260;2023-05-18T05:44:58;8.48;;;5.47;;
45318;SDS011;31057;48.498;32.260;2023-05-18T05:49:02;7.45;;;6.25;;
45318;SDS011;31057;48.498;32.260;2023-05-18T05:53:06;11.55;;;6.78;;
45318;SDS011;31057;48.498;32.260;2023-05-18T05:57:10;12.85;;;6.97;;
45318;SDS011;31057;48.498;32.260;2023-05-18T05:59:12;10.63;;;7.50;;
45318;SDS011;31057;48.498;32.260;2023-05-18T06:03:16;9.52;;;7.50;;
45318;SDS011;31057;48.498;32.260;2023-05-18T06:07:20;20.52;;;9.55;;
45318;SDS011;31057;48.498;32.260;2023-05-18T06:09:22;12.55;;;8.52;;
45318;SDS011;31057;48.498;32.260;2023-05-18T06:13:26;10.73;;;8.32;;
45318;SDS011;31057;48.498;32.260;2023-05-18T06:15:28;13.07;;;9.23;;
45318;SDS011;31057;48.498;32.260;2023-05-18T06:17:31;10.55;;;8.20;;
45318;SDS011;31057;48.498;32.260;2023-05-18T06:21:35;12.52;;;7.50;;
45318;SDS011;31057;48.498;32.260;2023-05-18T06:23:37;9.07;;;8.07;;
45318;SDS011;31057;48.498;32.260;2023-05-18T06:25:42;10.00;;;7.40;;
45318;SDS011;31057;48.498;32.260;2023-05-18T06:27:44;9.80;;;7.88;;
45318;SDS011;31057;48.498;32.260;2023-05-18T06:29:46;18.20;;;9.02;;
45318;SDS011;31057;48.498;32.260;2023-05-18T06:31:48;10.73;;;7.78;;
45318;SDS011;31057;48.498;32.260;2023-05-18T06:33:50;17.63;;;7.72;;
45318;SDS011;31057;48.498;32.260;2023-05-18T06:37:54;10.10;;;8.00;;
45318;SDS011;31057;48.498;32.260;2023-05-18T06:41:58;11.52;;;7.63;;
45318;SDS011;31057;48.498;32.260;2023-05-18T06:46:03;9.82;;;7.03;;
45318;SDS011;31057;48.498;32.260;2023-05-18T06:48:05;13.32;;;7.57;;
45318;SDS011;31057;48.498;32.260;2023-05-18T06:52:09;10.90;;;8.25;;
45318;SDS011;31057;48.498;32.260;2023-05-18T06:56:13;10.20;;;7.65;;
45318;SDS011;31057;48.498;32.260;2023-05-18T07:00:17;10.18;;;7.10;;
45318;SDS011;31057;48.498;32.260;2023-05-18T07:02:19;11.70;;;8.77;;
45318;SDS011;31057;48.498;32.260;2023-05-18T07:04:21;9.82;;;8.82;;
45318;SDS011;31057;48.498;32.260;2023-05-18T07:08:25;13.02;;;8.85;;
45318;SDS011;31057;48.498;32.260;2023-05-18T07:12:29;12.85;;;8.88;;
45318;SDS011;31057;48.498;32.260;2023-05-18T07:14:31;13.63;;;9.48;;
45318;SDS011;31057;48.498;32.260;2023-05-18T07:16:33;10.88;;;8.63;;
45318;SDS011;31057;48.498;32.260;2023-05-18T07:18:36;13.38;;;9.25;;
45318;SDS011;31057;48.498;32.260;2023-05-18T07:20:38;13.80;;;8.98;;
45318;SDS011;31057;48.498;32.260;2023-05-18T07:24:42;17.75;;;9.35;;
45318;SDS011;31057;48.498;32.260;2023-05-18T07:28:46;18.20;;;9.40;;
45318;SDS011;31057;48.498;32.260;2023-05-18T07:30:48;11.88;;;8.85;;
45318;SDS011;31057;48.498;32.260;2023-05-18T07:32:51;16.08;;;8.65;;
45318;SDS011;31057;48.498;32.260;2023-05-18T07:34:53;13.27;;;9.82;;
45318;SDS011;31057;48.498;32.260;2023-05-18T07:38:58;11.38;;;9.20;;
45318;SDS011;31057;48.498;32.260;2023-05-18T07:41:00;14.05;;;9.38;;
45318;SDS011;31057;48.498;32.260;2023-05-18T07:45:04;15.82;;;10.05;;
45318;SDS011;31057;48.498;32.260;2023-05-18T07:47:07;10.45;;;9.25;;
45318;SDS011;31057;48.498;32.260;2023-05-18T07:49:09;12.50;;;9.45;;
45318;SDS011;31057;48.498;32.260;2023-05-18T07:51:11;24.85;;;9.60;;
45318;SDS011;31057;48.498;32.260;2023-05-18T07:53:13;11.80;;;8.75;;
45318;SDS011;31057;48.498;32.260;2023-05-18T07:57:17;11.82;;;9.50;;
45318;SDS011;31057;48.498;32.260;2023-05-18T07:59:20;9.85;;;8.32;;
45318;SDS011;31057;48.498;32.260;2023-05-18T08:03:27;11.40;;;8.55;;
45318;SDS011;31057;48.498;32.260;2023-05-18T08:05:29;9.40;;;7.93;;
45318;SDS011;31057;48.498;32.260;2023-05-18T08:07:32;11.20;;;8.00;;
45318;SDS011;31057;48.498;32.260;2023-05-18T08:11:36;11.70;;;8.50;;
45318;SDS011;31057;48.498;32.260;2023-05-18T08:13:38;14.30;;;9.18;;
45318;SDS011;31057;48.498;32.260;2023-05-18T08:15:40;14.13;;;8.73;;
45318;SDS011;31057;48.498;32.260;2023-05-18T08:17:42;14.10;;;8.55;;
45318;SDS011;31057;48.498;32.260;2023-05-18T08:19:44;12.15;;;8.73;;
45318;SDS011;31057;48.498;32.260;2023-05-18T08:21:48;11.55;;;8.10;;
45318;SDS011;31057;48.498;32.260;2023-05-18T08:25:51;8.85;;;7.88;;
45318;SDS011;31057;48.498;32.260;2023-05-18T08:27:53;8.80;;;7.68;;
45318;SDS011;31057;48.498;32.260;2023-05-18T08:29:56;12.88;;;8.85;;
45318;SDS011;31057;48.498;32.260;2023-05-18T08:34:00;10.27;;;8.68;;
45318;SDS011;31057;48.498;32.260;2023-05-18T08:36:02;18.05;;;8.48;;
45318;SDS011;31057;48.498;32.260;2023-05-18T08:38:04;10.73;;;8.98;;
45318;SDS011;31057;48.498;32.260;2023-05-18T08:40:07;12.52;;;8.80;;
45318;SDS011;31057;48.498;32.260;2023-05-18T08:44:20;15.68;;;8.82;;
45318;SDS011;31057;48.498;32.260;2023-05-18T08:46:33;12.75;;;8.80;;
45318;SDS011;31057;48.498;32.260;2023-05-18T08:48:36;10.40;;;7.47;;
45318;SDS011;31057;48.498;32.260;2023-05-18T08:50:39;11.57;;;8.32;;
45318;SDS011;31057;48.498;32.260;2023-05-18T08:52:45;10.05;;;9.02;;
45318;SDS011;31057;48.498;32.260;2023-05-18T08:54:48;10.23;;;7.85;;
45318;SDS011;31057;48.498;32.260;2023-05-18T08:56:53;16.00;;;9.65;;
45318;SDS011;31057;48.498;32.260;2023-05-18T08:58:55;14.00;;;7.13;;
45318;SDS011;31057;48.498;32.260;2023-05-18T09:00:58;11.57;;;8.65;;
45318;SDS011;31057;48.498;32.260;2023-05-18T09:03:01;10.38;;;8.77;;
45318;SDS011;31057;48.498;32.260;2023-05-18T09:05:05;13.32;;;8.98;;
45318;SDS011;31057;48.498;32.260;2023-05-18T09:07:08;14.45;;;8.98;;
45318;SDS011;31057;48.498;32.260;2023-05-18T09:09:11;13.48;;;9.00;;
45318;SDS011;31057;48.498;32.260;2023-05-18T09:11:14;16.33;;;9.30;;
45318;SDS011;31057;48.498;32.260;2023-05-18T09:13:18;21.63;;;9.40;;
45318;SDS011;31057;48.498;32.260;2023-05-18T09:15:23;15.00;;;8.95;;
45318;SDS011;31057;48.498;32.260;2023-05-18T09:17:26;10.88;;;8.80;;
45318;SDS011;31057;48.498;32.260;2023-05-18T09:19:28;15.68;;;8.63;;
45318;SDS011;31057;48.498;32.260;2023-05-18T09:21:30;11.55;;;9.35;;
45318;SDS011;31057;48.498;32.260;2023-05-18T09:23:33;11.50;;;9.93;;
45318;SDS011;31057;48.498;32.260;2023-05-18T09:25:38;20.17;;;9.15;;
45318;SDS011;31057;48.498;32.260;2023-05-18T09:27:47;10.45;;;8.60;;
45318;SDS011;31057;48.498;32.260;2023-05-18T09:29:53;11.18;;;8.75;;
45318;SDS011;31057;48.498;32.260;2023-05-18T09:31:56;10.55;;;9.20;;
45318;SDS011;31057;48.498;32.260;2023-05-18T09:34:04;13.00;;;9.55;;
45318;SDS011;31057;48.498;32.260;2023-05-18T09:36:07;14.75;;;9.85;;
45318;SDS011;31057;48.498;32.260;2023-05-18T09:38:10;9.77;;;8.30;;
45318;SDS011;31057;48.498;32.260;2023-05-18T09:40:15;13.52;;;9.52;;
45318;SDS011;31057;48.498;32.260;2023-05-18T09:42:19;12.73;;;9.52;;
45318;SDS011;31057;48.498;32.260;2023-05-18T09:44:29;13.63;;;10.18;;
45318;SDS011;31057;48.498;32.260;2023-05-18T09:46:37;11.07;;;9.68;;
45318;SDS011;31057;48.498;32.260;2023-05-18T09:48:41;11.43;;;10.30;;
45318;SDS011;31057;48.498;32.260;2023-05-18T09:50:44;11.43;;;10.15;;
45318;SDS011;31057;48.498;32.260;2023-05-18T09:52:46;12.25;;;11.00;;
45318;SDS011;31057;48.498;32.260;2023-05-18T09:54:56;13.35;;;10.15;;
45318;SDS011;31057;48.498;32.260;2023-05-18T09:57:00;13.73;;;10.43;;
45318;SDS011;31057;48.498;32.260;2023-05-18T09:59:14;15.90;;;10.63;;
45318;SDS011;31057;48.498;32.260;2023-05-18T10:01:16;17.60;;;10.95;;
45318;SDS011;31057;48.498;32.260;2023-05-18T10:03:20;18.75;;;10.68;;
45318;SDS011;31057;48.498;32.260;2023-05-18T10:05:24;15.65;;;10.48;;
45318;SDS011;31057;48.498;32.260;2023-05-18T10:07:27;15.25;;;11.88;;
45318;SDS011;31057;48.498;32.260;2023-05-18T10:09:29;13.70;;;10.63;;
45318;SDS011;31057;48.498;32.260;2023-05-18T10:11:31;12.43;;;10.93;;
45318;SDS011;31057;48.498;32.260;2023-05-18T10:13:35;12.25;;;11.00;;
45318;SDS011;31057;48.498;32.260;2023-05-18T10:15:37;12.85;;;10.80;;
45318;SDS011;31057;48.498;32.260;2023-05-18T10:17:48;16.42;;;10.40;;
45318;SDS011;31057;48.498;32.260;2023-05-18T10:19:51;13.82;;;10.40;;
45318;SDS011;31057;48.498;32.260;2023-05-18T10:21:57;15.90;;;11.00;;
45318;SDS011;31057;48.498;32.260;2023-05-18T10:24:01;10.98;;;9.57;;
45318;SDS011;31057;48.498;32.260;2023-05-18T10:26:06;13.50;;;10.60;;
45318;SDS011;31057;48.498;32.260;2023-05-18T10:28:10;15.40;;;11.43;;
45318;SDS011;31057;48.498;32.260;2023-05-18T10:30:14;13.43;;;11.00;;
45318;SDS011;31057;48.498;32.260;2023-05-18T10:32:18;13.82;;;12.18;;
45318;SDS011;31057;48.498;32.260;2023-05-18T10:34:23;12.48;;;11.25;;
45318;SDS011;31057;48.498;32.260;2023-05-18T10:36:25;12.70;;;11.48;;
45318;SDS011;31057;48.498;32.260;2023-05-18T10:38:30;14.57;;;11.02;;
45318;SDS011;31057;48.498;32.260;2023-05-18T10:40:33;12.68;;;11.38;;
45318;SDS011;31057;48.498;32.260;2023-05-18T10:42:37;20.45;;;12.15;;
45318;SDS011;31057;48.498;32.260;2023-05-18T10:44:41;14.57;;;11.88;;
45318;SDS011;31057;48.498;32.260;2023-05-18T10:46:45;12.30;;;11.20;;
45318;SDS011;31057;48.498;32.260;2023-05-18T10:48:47;16.83;;;11.10;;
45318;SDS011;31057;48.498;32.260;2023-05-18T10:50:52;19.88;;;11.48;;
45318;SDS011;31057;48.498;32.260;2023-05-18T10:52:56;14.77;;;10.75;;
45318;SDS011;31057;48.498;32.260;2023-05-18T10:55:02;13.05;;;11.00;;
45318;SDS011;31057;48.498;32.260;2023-05-18T10:57:04;18.60;;;11.60;;
45318;SDS011;31057;48.498;32.260;2023-05-18T10:59:07;13.48;;;12.15;;
45318;SDS011;31057;48.498;32.260;2023-05-18T11:01:10;20.60;;;11.20;;
45318;SDS011;31057;48.498;32.260;2023-05-18T11:03:13;13.95;;;11.45;;
45318;SDS011;31057;48.498;32.260;2023-05-18T11:05:24;13.07;;;10.98;;
45318;SDS011;31057;48.498;32.260;2023-05-18T11:07:26;14.27;;;11.15;;
45318;SDS011;31057;48.498;32.260;2023-05-18T11:09:30;16.17;;;11.82;;
45318;SDS011;31057;48.498;32.260;2023-05-18T11:11:49;17.20;;;11.90;;
45318;SDS011;31057;48.498;32.260;2023-05-18T11:13:53;12.23;;;10.95;;
45318;SDS011;31057;48.498;32.260;2023-05-18T11:18:12;18.02;;;12.43;;
45318;SDS011;31057;48.498;32.260;2023-05-18T11:20:15;15.15;;;11.55;;
45318;SDS011;31057;48.498;32.260;2023-05-18T11:22:17;12.90;;;11.70;;
45318;SDS011;31057;48.498;32.260;2023-05-18T11:24:29;19.20;;;11.73;;
45318;SDS011;31057;48.498;32.260;2023-05-18T11:26:32;15.88;;;12.10;;
45318;SDS011;31057;48.498;32.260;2023-05-18T11:28:42;15.65;;;12.07;;
45318;SDS011;31057;48.498;32.260;2023-05-18T11:30:45;14.20;;;11.07;;
45318;SDS011;31057;48.498;32.260;2023-05-18T11:32:49;11.90;;;10.35;;
45318;SDS011;31057;48.498;32.260;2023-05-18T11:35:08;11.82;;;10.63;;
45318;SDS011;31057;48.498;32.260;2023-05-18T11:39:53;13.02;;;11.35;;
45318;SDS011;31057;48.498;32.260;2023-05-18T11:42:01;13.80;;;11.77;;
45318;SDS011;31057;48.498;32.260;2023-05-18T11:46:18;12.32;;;11.10;;
45318;SDS011;31057;48.498;32.260;2023-05-18T11:48:22;12.32;;;10.52;;
45318;SDS011;31057;48.498;32.260;2023-05-18T11:50:26;15.65;;;11.85;;
45318;SDS011;31057;48.498;32.260;2023-05-18T11:52:44;12.48;;;10.60;;
45318;SDS011;31057;48.498;32.260;2023-05-18T11:54:51;14.27;;;12.00;;
45318;SDS011;31057;48.498;32.260;2023-05-18T11:56:54;13.30;;;11.25;;
45318;SDS011;31057;48.498;32.260;2023-05-18T11:59:12;12.50;;;10.82;;
45318;SDS011;31057;48.498;32.260;2023-05-18T12:01:14;14.63;;;12.18;;
45318;SDS011;31057;48.498;32.260;2023-05-18T12:03:17;14.98;;;12.75;;
45318;SDS011;31057;48.498;32.260;2023-05-18T12:05:24;14.18;;;12.05;;
45318;SDS011;31057;48.498;32.260;2023-05-18T12:07:30;18.48;;;12.90;;
45318;SDS011;31057;48.498;32.260;2023-05-18T12:09:33;16.88;;;12.30;;
45318;SDS011;31057;48.498;32.260;2023-05-18T12:11:36;15.57;;;12.35;;
45318;SDS011;31057;48.498;32.260;2023-05-18T12:13:39;19.23;;;13.18;;
45318;SDS011;31057;48.498;32.260;2023-05-18T12:15:42;15.60;;;12.93;;
45318;SDS011;31057;48.498;32.260;2023-05-18T12:19:51;15.45;;;11.13;;
45318;SDS011;31057;48.498;32.260;2023-05-18T12:21:53;15.13;;;12.07;;
45318;SDS011;31057;48.498;32.260;2023-05-18T12:23:59;14.23;;;11.43;;
45318;SDS011;31057;48.498;32.260;2023-05-18T12:26:01;13.07;;;11.85;;
45318;SDS011;31057;48.498;32.260;2023-05-18T12:28:03;13.10;;;11.07;;
45318;SDS011;31057;48.498;32.260;2023-05-18T12:30:07;13.52;;;11.07;;
45318;SDS011;31057;48.498;32.260;2023-05-18T12:32:16;13.83;;;12.40;;
45318;SDS011;31057;48.498;32.260;2023-05-18T12:34:19;13.82;;;11.85;;
45318;SDS011;31057;48.498;32.260;2023-05-18T12:36:21;12.32;;;10.82;;
45318;SDS011;31057;48.498;32.260;2023-05-18T12:38:24;13.82;;;11.10;;
45318;SDS011;31057;48.498;32.260;2023-05-18T12:40:38;13.68;;;12.27;;
45318;SDS011;31057;48.498;32.260;2023-05-18T12:42:58;15.20;;;11.93;;
45318;SDS011;31057;48.498;32.260;2023-05-18T12:45:01;17.05;;;11.52;;
45318;SDS011;31057;48.498;32.260;2023-05-18T12:47:06;16.98;;;11.93;;
45318;SDS011;31057;48.498;32.260;2023-05-18T12:49:10;15.88;;;12.60;;
45318;SDS011;31057;48.498;32.260;2023-05-18T12:51:18;14.38;;;11.43;;
45318;SDS011;31057;48.498;32.260;2023-05-18T12:53:21;24.48;;;11.70;;
45318;SDS011;31057;48.498;32.260;2023-05-18T12:55:24;14.90;;;11.90;;
45318;SDS011;31057;48.498;32.260;2023-05-18T12:57:26;12.48;;;11.23;;
45318;SDS011;31057;48.498;32.260;2023-05-18T12:59:31;14.77;;;12.32;;
45318;SDS011;31057;48.498;32.260;2023-05-18T13:01:39;11.98;;;10.85;;
45318;SDS011;31057;48.498;32.260;2023-05-18T13:03:44;12.57;;;11.27;;
45318;SDS011;31057;48.498;32.260;2023-05-18T13:06:00;17.67;;;11.93;;
45318;SDS011;31057;48.498;32.260;2023-05-18T13:08:03;16.05;;;12.07;;
45318;SDS011;31057;48.498;32.260;2023-05-18T13:10:06;14.60;;;12.25;;
45318;SDS011;31057;48.498;32.260;2023-05-18T13:12:10;15.00;;;11.32;;
45318;SDS011;31057;48.498;32.260;2023-05-18T13:14:12;13.23;;;11.63;;
45318;SDS011;31057;48.498;32.260;2023-05-18T13:16:15;17.65;;;12.63;;
45318;SDS011;31057;48.498;32.260;2023-05-18T13:18:17;16.00;;;11.73;;
45318;SDS011;31057;48.498;32.260;2023-05-18T13:20:19;14.98;;;13.40;;
45318;SDS011;31057;48.498;32.260;2023-05-18T13:22:21;16.67;;;12.75;;
45318;SDS011;31057;48.498;32.260;2023-05-18T13:24:22;15.85;;;12.65;;
45318;SDS011;31057;48.498;32.260;2023-05-18T13:26:24;18.52;;;12.45;;
45318;SDS011;31057;48.498;32.260;2023-05-18T13:28:27;15.82;;;12.32;;
45318;SDS011;31057;48.498;32.260;2023-05-18T13:30:29;14.07;;;11.02;;
45318;SDS011;31057;48.498;32.260;2023-05-18T13:32:32;12.75;;;11.32;;
45318;SDS011;31057;48.498;32.260;2023-05-18T13:34:35;18.73;;;12.32;;
45318;SDS011;31057;48.498;32.260;2023-05-18T13:36:36;15.57;;;11.95;;
45318;SDS011;31057;48.498;32.260;2023-05-18T13:38:39;13.60;;;12.02;;
45318;SDS011;31057;48.498;32.260;2023-05-18T13:40:41;22.55;;;12.15;;
45318;SDS011;31057;48.498;32.260;2023-05-18T13:42:44;16.27;;;12.20;;
45318;SDS011;31057;48.498;32.260;2023-05-18T13:44:46;14.27;;;11.85;;
45318;SDS011;31057;48.498;32.260;2023-05-18T13:46:48;14.40;;;11.30;;
45318;SDS011;31057;48.498;32.260;2023-05-18T13:48:50;13.27;;;11.90;;
45318;SDS011;31057;48.498;32.260;2023-05-18T13:50:52;16.25;;;12.23;;
45318;SDS011;31057;48.498;32.260;2023-05-18T13:52:55;19.08;;;12.45;;
45318;SDS011;31057;48.498;32.260;2023-05-18T13:54:57;14.27;;;11.68;;
45318;SDS011;31057;48.498;32.260;2023-05-18T13:56:59;17.85;;;12.15;;
45318;SDS011;31057;48.498;32.260;2023-05-18T13:59:01;13.30;;;11.10;;
45318;SDS011;31057;48.498;32.260;2023-05-18T14:01:03;15.25;;;12.00;;
45318;SDS011;31057;48.498;32.260;2023-05-18T14:03:09;14.63;;;11.75;;
45318;SDS011;31057;48.498;32.260;2023-05-18T14:05:12;12.18;;;10.98;;